createdAt,value
2023-04-12T00:00:57.397Z,4.93
2023-04-12T00:03:25.383Z,4.55
2023-04-12T00:05:55.157Z,3.90
2023-04-12T00:08:32.961Z,11.17
2023-04-12T00:11:00.394Z,5.15
2023-04-12T00:13:29.772Z,4.50
2023-04-12T00:15:56.463Z,5.05
2023-04-12T00:18:25.602Z,4.43
2023-04-12T00:20:53.127Z,6.27
2023-04-12T00:23:20.648Z,6.50
2023-04-12T00:25:47.613Z,7.72
2023-04-12T00:28:16.261Z,5.40
2023-04-12T00:30:45.973Z,6.47
2023-04-12T00:33:12.485Z,5.27
2023-04-12T00:35:39.074Z,5.18
2023-04-12T00:38:10.382Z,5.05
2023-04-12T00:40:42.471Z,7.07
2023-04-12T00:43:10.373Z,6.05
2023-04-12T00:45:37.571Z,5.50
2023-04-12T00:48:05.983Z,8.35
2023-04-12T00:50:32.744Z,5.93
2023-04-12T00:53:00.718Z,6.07
2023-04-12T00:55:27.297Z,10.85
2023-04-12T00:57:54.121Z,11.23
2023-04-12T01:00:20.794Z,13.05
2023-04-12T01:02:50.395Z,8.38
2023-04-12T01:05:22.624Z,9.27
2023-04-12T01:08:28.192Z,7.55
2023-04-12T01:11:23.627Z,6.47
2023-04-12T01:14:22.008Z,7.60
2023-04-12T01:16:51.480Z,7.32
2023-04-12T01:19:45.284Z,6.72
2023-04-12T01:22:27.076Z,4.38
2023-04-12T01:25:12.295Z,4.37
2023-04-12T01:27:46.445Z,5.57
2023-04-12T01:30:16.946Z,3.38
2023-04-12T01:32:51.160Z,6.55
2023-04-12T01:35:21.095Z,3.40
2023-04-12T01:37:48.100Z,5.37
2023-04-12T01:40:18.876Z,3.35
2023-04-12T01:42:45.752Z,7.50
2023-04-12T01:45:12.327Z,4.75
2023-04-12T01:47:39.652Z,4.35
2023-04-12T01:50:22.191Z,5.83
2023-04-12T01:53:08.995Z,4.65
2023-04-12T01:55:38.620Z,4.00
2023-04-12T01:58:07.514Z,4.00
2023-04-12T02:00:36.153Z,8.38
2023-04-12T02:03:05.994Z,4.43
2023-04-12T02:05:33.944Z,5.65
2023-04-12T02:08:02.507Z,5.28
2023-04-12T02:10:33.835Z,5.68
2023-04-12T02:13:01.255Z,4.90
2023-04-12T02:15:28.916Z,4.30
2023-04-12T02:17:55.795Z,5.07
2023-04-12T02:20:24.177Z,3.90
2023-04-12T02:22:52.150Z,5.68
2023-04-12T02:25:20.571Z,6.07
2023-04-12T02:27:48.582Z,4.53
2023-04-12T02:30:15.921Z,5.70
2023-04-12T02:32:45.847Z,6.03
2023-04-12T02:35:20.160Z,9.20
2023-04-12T02:37:51.912Z,4.10
2023-04-12T02:40:18.547Z,4.77
2023-04-12T02:42:45.457Z,4.40
2023-04-12T02:45:13.527Z,6.28
2023-04-12T02:47:41.643Z,5.47
2023-04-12T02:50:11.801Z,8.05
2023-04-12T02:52:49.077Z,4.20
2023-04-12T02:55:15.766Z,4.90
2023-04-12T02:57:45.685Z,4.35
2023-04-12T03:00:15.316Z,3.47
2023-04-12T03:02:45.202Z,4.63
2023-04-12T03:05:20.116Z,3.97
2023-04-12T03:07:49.019Z,4.95
2023-04-12T03:10:19.452Z,5.32
2023-04-12T03:12:53.593Z,4.05
2023-04-12T03:15:23.429Z,4.55
2023-04-12T03:17:52.930Z,6.17
2023-04-12T03:20:24.593Z,8.95
2023-04-12T03:23:04.399Z,6.35
2023-04-12T03:25:33.148Z,6.70
2023-04-12T03:28:16.485Z,6.20
2023-04-12T03:30:48.283Z,6.13
2023-04-12T03:33:17.370Z,5.97
2023-04-12T03:35:47.491Z,6.72
2023-04-12T03:38:15.249Z,9.52
2023-04-12T03:40:42.926Z,8.50
2023-04-12T03:43:10.972Z,11.17
2023-04-12T03:46:04.564Z,5.32
2023-04-12T03:48:31.717Z,5.82
2023-04-12T03:50:59.696Z,7.80
2023-04-12T03:53:31.543Z,8.80
2023-04-12T03:55:58.265Z,6.63
2023-04-12T03:58:31.124Z,9.80
2023-04-12T04:01:23.953Z,5.90
2023-04-12T04:03:52.537Z,6.70
2023-04-12T04:06:23.794Z,6.45
2023-04-12T04:08:53.851Z,6.87
2023-04-12T04:11:21.184Z,6.10
2023-04-12T04:13:51.912Z,7.80
2023-04-12T04:16:20.970Z,5.78
2023-04-12T04:18:49.443Z,7.55
2023-04-12T04:21:22.302Z,8.60
2023-04-12T04:23:54.396Z,10.15
2023-04-12T04:26:31.263Z,6.22
2023-04-12T04:29:04.800Z,8.75
2023-04-12T04:31:37.624Z,12.13
2023-04-12T04:34:07.158Z,7.40
2023-04-12T04:36:41.582Z,8.32
2023-04-12T04:39:09.823Z,7.22
2023-04-12T04:41:44.800Z,5.88
2023-04-12T04:44:22.511Z,5.28
2023-04-12T04:46:54.213Z,4.70
2023-04-12T04:49:21.086Z,5.35
2023-04-12T04:51:47.938Z,6.00
2023-04-12T04:54:18.658Z,4.13
2023-04-12T04:56:45.351Z,7.13
2023-04-12T04:59:17.622Z,6.03
2023-04-12T05:01:44.488Z,9.20
2023-04-12T05:04:12.775Z,8.10
2023-04-12T05:06:39.377Z,4.35
2023-04-12T05:09:08.817Z,4.82
2023-04-12T05:11:42.265Z,6.30
2023-04-12T05:14:12.632Z,7.65
2023-04-12T05:16:40.275Z,4.72
2023-04-12T05:19:07.236Z,4.47
2023-04-12T05:21:34.632Z,4.53
2023-04-12T05:24:01.419Z,4.60
2023-04-12T05:26:28.997Z,6.38
2023-04-12T05:28:58.003Z,4.13
2023-04-12T05:31:25.234Z,4.05
2023-04-12T05:33:53.789Z,3.78
2023-04-12T05:36:24.319Z,6.60
2023-04-12T05:38:52.286Z,4.97
2023-04-12T05:41:18.978Z,4.65
2023-04-12T05:43:47.254Z,5.05
2023-04-12T05:46:16.239Z,6.50
2023-04-12T05:48:46.912Z,5.27
2023-04-12T05:51:13.432Z,4.95
2023-04-12T05:53:40.107Z,3.75
2023-04-12T05:56:07.693Z,4.13
2023-04-12T05:58:35.646Z,5.20
2023-04-12T06:01:02.210Z,5.30
2023-04-12T06:03:30.863Z,5.28
2023-04-12T06:06:04.104Z,3.67
2023-04-12T06:08:31.089Z,4.82
2023-04-12T06:10:57.799Z,3.55
2023-04-12T06:13:26.404Z,5.67
2023-04-12T06:15:53.541Z,6.57
2023-04-12T06:18:20.305Z,4.57
2023-04-12T06:20:47.892Z,3.97
2023-04-12T06:23:15.678Z,4.70
2023-04-12T06:25:42.310Z,4.20
2023-04-12T06:28:09.356Z,5.40
2023-04-12T06:30:42.781Z,4.20
2023-04-12T06:33:09.352Z,3.03
2023-04-12T06:35:37.035Z,3.88
2023-04-12T06:38:03.790Z,6.10
2023-04-12T06:40:30.568Z,3.95
2023-04-12T06:42:57.172Z,3.97
2023-04-12T06:45:23.818Z,4.78
2023-04-12T06:47:50.521Z,5.07
2023-04-12T06:50:18.476Z,3.50
2023-04-12T06:52:45.202Z,3.80
2023-04-12T06:55:11.747Z,5.53
2023-04-12T06:57:38.274Z,4.93
2023-04-12T07:00:05.397Z,4.40
2023-04-12T07:02:32.461Z,3.63
2023-04-12T07:04:59.328Z,3.50
2023-04-12T07:07:25.987Z,5.38
2023-04-12T07:09:53.577Z,4.03
2023-04-12T07:12:20.204Z,4.38
2023-04-12T07:14:46.828Z,5.97
2023-04-12T07:17:13.476Z,5.95
2023-04-12T07:19:42.109Z,4.43
2023-04-12T07:22:08.842Z,6.80
2023-04-12T07:24:35.433Z,7.13
2023-04-12T07:27:02.049Z,5.93
2023-04-12T07:29:28.655Z,7.07
2023-04-12T07:31:55.290Z,6.50
2023-04-12T07:34:23.996Z,7.20
2023-04-12T07:36:50.837Z,5.25
2023-04-12T07:39:17.781Z,4.77
2023-04-12T07:41:46.487Z,5.38
2023-04-12T07:44:13.037Z,6.00
2023-04-12T07:46:41.932Z,5.53
2023-04-12T07:49:10.490Z,4.95
2023-04-12T07:51:37.618Z,5.90
2023-04-12T07:54:04.390Z,6.25
2023-04-12T07:56:34.294Z,5.55
2023-04-12T07:59:01.158Z,8.07
2023-04-12T08:01:28.287Z,6.78
2023-04-12T08:03:54.981Z,8.53
2023-04-12T08:06:21.652Z,5.57
2023-04-12T08:08:48.194Z,7.45
2023-04-12T08:11:14.736Z,12.15
2023-04-12T08:13:41.322Z,7.70
2023-04-12T08:16:09.029Z,6.70
2023-04-12T08:18:35.775Z,8.15
2023-04-12T08:21:02.596Z,10.02
2023-04-12T08:23:29.823Z,8.10
2023-04-12T08:26:03.087Z,9.60
2023-04-12T08:28:31.049Z,7.97
2023-04-12T08:30:59.168Z,7.55
2023-04-12T08:33:26.018Z,7.80
2023-04-12T08:35:52.946Z,9.40
2023-04-12T08:38:25.411Z,9.73
2023-04-12T08:40:57.925Z,9.80
2023-04-12T08:43:28.993Z,7.00
2023-04-12T08:45:58.373Z,45.70
2023-04-12T08:48:26.138Z,17.40
2023-04-12T08:50:53.131Z,30.13
2023-04-12T08:53:19.894Z,8.93
2023-04-12T08:55:46.518Z,8.65
2023-04-12T08:58:16.173Z,8.70
2023-04-12T09:00:44.226Z,7.68
2023-04-12T09:03:11.215Z,7.85
2023-04-12T09:05:38.079Z,9.17
2023-04-12T09:08:04.910Z,7.72
2023-04-12T09:10:37.825Z,8.50
2023-04-12T09:13:05.797Z,9.60
2023-04-12T09:15:33.836Z,9.48
2023-04-12T09:18:15.807Z,8.90
2023-04-12T09:20:43.726Z,8.70
2023-04-12T09:23:18.432Z,7.88
2023-04-12T09:25:48.098Z,9.93
2023-04-12T09:28:28.537Z,7.82
2023-04-12T09:30:57.063Z,6.87
2023-04-12T09:33:34.398Z,7.07
2023-04-12T09:36:02.853Z,7.05
2023-04-12T09:38:30.863Z,8.05
2023-04-12T09:40:57.732Z,9.48
2023-04-12T09:43:39.777Z,8.73
2023-04-12T09:46:11.726Z,9.30
2023-04-12T09:48:41.535Z,9.80
2023-04-12T09:51:08.329Z,10.32
2023-04-12T09:53:38.388Z,9.00
2023-04-12T09:56:08.306Z,9.33
2023-04-12T09:58:37.288Z,10.18
2023-04-12T10:01:06.901Z,9.80
2023-04-12T10:03:33.947Z,9.82
2023-04-12T10:06:02.618Z,8.43
2023-04-12T10:08:30.843Z,8.53
2023-04-12T10:10:58.847Z,7.65
2023-04-12T10:13:29.549Z,8.75
2023-04-12T10:15:56.321Z,10.05
2023-04-12T10:18:23.875Z,7.28
2023-04-12T10:20:50.779Z,10.07
2023-04-12T10:23:19.733Z,10.10
2023-04-12T10:25:48.780Z,8.10
2023-04-12T10:28:17.497Z,8.63
2023-04-12T10:30:45.312Z,8.35
2023-04-12T10:33:13.841Z,8.20
2023-04-12T10:35:54.992Z,7.03
2023-04-12T10:38:24.946Z,6.03
2023-04-12T10:41:14.602Z,5.85
2023-04-12T10:43:43.686Z,5.97
2023-04-12T10:46:39.827Z,8.27
2023-04-12T10:49:10.508Z,10.90
2023-04-12T10:51:37.813Z,7.20
2023-04-12T10:54:16.916Z,6.38
2023-04-12T10:56:47.848Z,7.75
2023-04-12T10:59:31.290Z,6.33
2023-04-12T11:02:07.288Z,6.75
2023-04-12T11:04:35.601Z,6.55
2023-04-12T11:07:12.356Z,5.57
2023-04-12T11:09:43.290Z,5.68
2023-04-12T11:12:16.175Z,5.30
2023-04-12T11:14:47.024Z,7.18
2023-04-12T11:17:13.871Z,5.00
2023-04-12T11:19:42.756Z,5.03
2023-04-12T11:22:11.519Z,4.97
2023-04-12T11:24:39.572Z,4.20
2023-04-12T11:27:06.346Z,6.68
2023-04-12T11:29:32.872Z,5.07
2023-04-12T11:31:59.637Z,7.45
2023-04-12T11:34:26.265Z,5.65
2023-04-12T11:36:54.078Z,4.43
2023-04-12T11:39:21.263Z,8.07
2023-04-12T11:41:48.920Z,5.85
2023-04-12T11:44:21.690Z,3.63
2023-04-12T11:46:51.468Z,5.40
2023-04-12T11:49:19.652Z,4.37
2023-04-12T11:51:49.415Z,5.57
2023-04-12T11:54:16.410Z,3.85
2023-04-12T11:56:43.061Z,3.63
2023-04-12T11:59:09.641Z,4.65
2023-04-12T12:01:37.638Z,3.17
2023-04-12T12:04:05.766Z,7.32
2023-04-12T12:06:33.125Z,4.15
2023-04-12T12:09:00.681Z,4.65
2023-04-12T12:11:27.621Z,2.72
2023-04-12T12:13:56.339Z,4.20
2023-04-12T12:16:28.219Z,4.38
2023-04-12T12:18:55.609Z,4.72
2023-04-12T12:21:22.281Z,6.05
2023-04-12T12:23:49.996Z,6.10
2023-04-12T12:26:24.965Z,5.53
2023-04-12T12:28:55.881Z,7.38
2023-04-12T12:31:24.603Z,4.22
2023-04-12T12:33:59.258Z,4.60
2023-04-12T12:36:36.715Z,5.18
2023-04-12T12:39:09.641Z,3.70
2023-04-12T12:41:36.813Z,5.30
2023-04-12T12:44:03.578Z,4.55
2023-04-12T12:46:44.648Z,3.53
2023-04-12T12:49:17.385Z,3.75
2023-04-12T12:51:44.078Z,4.87
2023-04-12T12:54:10.708Z,4.28
2023-04-12T12:56:37.290Z,4.13
2023-04-12T12:59:04.056Z,6.93
2023-04-12T13:01:30.641Z,4.50
2023-04-12T13:03:58.835Z,4.47
2023-04-12T13:06:27.055Z,5.13
2023-04-12T13:08:55.050Z,3.53
2023-04-12T13:11:21.974Z,4.15
2023-04-12T13:13:48.667Z,3.50
2023-04-12T13:16:15.692Z,4.07
2023-04-12T13:18:43.275Z,2.92
2023-04-12T13:21:09.950Z,2.83
2023-04-12T13:23:36.491Z,2.38
2023-04-12T13:26:03.206Z,3.70
2023-04-12T13:28:29.779Z,2.63
2023-04-12T13:30:56.335Z,2.72
2023-04-12T13:33:22.952Z,3.53
2023-04-12T13:35:49.732Z,2.58
2023-04-12T13:38:16.274Z,2.95
2023-04-12T13:40:42.816Z,3.57
2023-04-12T13:43:09.433Z,4.43
2023-04-12T13:45:36.204Z,2.60
2023-04-12T13:48:02.918Z,4.57
2023-04-12T13:50:29.578Z,3.40
2023-04-12T13:52:56.085Z,5.00
2023-04-12T13:55:22.873Z,4.13
2023-04-12T13:57:49.412Z,4.00
2023-04-12T14:00:16.542Z,2.30
2023-04-12T14:02:43.154Z,2.97
2023-04-12T14:05:11.400Z,5.20
2023-04-12T14:07:37.986Z,3.55
2023-04-12T14:10:05.032Z,2.67
2023-04-12T14:12:31.632Z,2.95
2023-04-12T14:14:58.188Z,2.60
2023-04-12T14:17:24.930Z,3.87
2023-04-12T14:19:51.692Z,3.53
2023-04-12T14:22:18.205Z,2.42
2023-04-12T14:24:44.766Z,2.70
2023-04-12T14:27:11.294Z,2.63
2023-04-12T14:29:39.442Z,3.00
2023-04-12T14:32:05.972Z,2.80
2023-04-12T14:34:32.559Z,3.03
2023-04-12T14:37:00.481Z,3.15
2023-04-12T14:39:27.747Z,6.18
2023-04-12T14:41:54.539Z,5.73
2023-04-12T14:44:23.064Z,2.25
2023-04-12T14:46:51.563Z,2.70
2023-04-12T14:49:18.475Z,3.00
2023-04-12T14:51:45.695Z,2.97
2023-04-12T14:54:12.231Z,4.00
2023-04-12T14:56:46.157Z,3.75
2023-04-12T14:59:16.432Z,2.60
2023-04-12T15:01:43.525Z,2.22
2023-04-12T15:04:10.309Z,3.95
2023-04-12T15:07:00.541Z,4.10
2023-04-12T15:09:27.703Z,2.22
2023-04-12T15:12:00.653Z,2.63
2023-04-12T15:14:27.880Z,3.30
2023-04-12T15:16:55.118Z,3.10
2023-04-12T15:19:24.761Z,2.77
2023-04-12T15:21:52.458Z,3.72
2023-04-12T15:24:19.474Z,2.70
2023-04-12T15:26:48.426Z,2.50
2023-04-12T15:29:18.706Z,2.40
2023-04-12T15:31:56.642Z,3.30
2023-04-12T15:34:25.954Z,2.60
2023-04-12T15:36:52.790Z,2.38
2023-04-12T15:39:19.504Z,2.63
2023-04-12T15:41:46.375Z,2.20
2023-04-12T15:44:13.218Z,3.50
2023-04-12T15:49:42.987Z,4.00
2023-04-12T15:52:09.657Z,3.20
2023-04-12T15:54:43.437Z,2.92
2023-04-12T15:57:11.513Z,6.00
2023-04-12T15:59:41.739Z,4.38
2023-04-12T16:02:09.988Z,3.10
2023-04-12T16:04:37.047Z,3.92
2023-04-12T16:07:04.517Z,2.67
2023-04-12T16:09:32.727Z,5.10
2023-04-12T16:12:00.348Z,2.78
2023-04-12T16:14:27.229Z,4.53
2023-04-12T16:16:53.766Z,2.67
2023-04-12T16:19:20.340Z,2.72
2023-04-12T16:21:47.199Z,2.20
2023-04-12T16:24:14.221Z,2.67
2023-04-12T16:26:41.881Z,2.63
2023-04-12T16:29:08.736Z,3.08
2023-04-12T16:31:36.060Z,4.43
2023-04-12T16:34:02.649Z,3.23
2023-04-12T16:36:31.305Z,3.70
2023-04-12T16:38:59.548Z,3.95
2023-04-12T16:41:26.459Z,4.28
2023-04-12T16:43:55.238Z,3.47
2023-04-12T16:46:22.281Z,5.03
2023-04-12T16:48:49.151Z,3.35
2023-04-12T16:51:15.732Z,4.43
2023-04-12T16:53:42.320Z,5.13
2023-04-12T16:56:09.390Z,5.00
2023-04-12T16:58:36.071Z,3.60
2023-04-12T17:01:02.717Z,4.18
2023-04-12T17:03:30.209Z,5.45
2023-04-12T17:05:56.948Z,5.15
2023-04-12T17:08:23.554Z,3.95
2023-04-12T17:10:50.806Z,4.27
2023-04-12T17:13:20.039Z,3.95
2023-04-12T17:15:50.228Z,5.00
2023-04-12T17:18:16.905Z,4.85
2023-04-12T17:20:44.061Z,4.20
2023-04-12T17:23:10.788Z,7.27
2023-04-12T17:25:38.014Z,4.18
2023-04-12T17:28:05.144Z,3.47
2023-04-12T17:30:32.050Z,4.47
2023-04-12T17:33:00.968Z,4.82
2023-04-12T17:35:27.989Z,10.37
2023-04-12T17:37:54.680Z,7.53
2023-04-12T17:40:21.333Z,9.82
2023-04-12T17:42:48.034Z,8.20
2023-04-12T17:45:16.069Z,8.85
2023-04-12T17:47:42.950Z,22.20
2023-04-12T17:50:11.154Z,31.45
2023-04-12T17:52:38.420Z,28.08
2023-04-12T17:55:07.241Z,24.13
2023-04-12T17:57:33.871Z,10.20
2023-04-12T18:00:00.520Z,8.57
2023-04-12T18:02:27.442Z,7.05
2023-04-12T18:04:54.518Z,4.97
2023-04-12T18:07:21.365Z,3.60
2023-04-12T18:09:48.199Z,8.18
2023-04-12T18:12:14.942Z,12.33
2023-04-12T18:14:41.535Z,6.82
2023-04-12T18:17:08.392Z,9.63
2023-04-12T18:19:35.041Z,17.27
2023-04-12T18:22:01.812Z,18.52
2023-04-12T18:24:28.481Z,23.43
2023-04-12T18:26:55.070Z,20.73
2023-04-12T18:29:21.861Z,13.45
2023-04-12T18:31:48.505Z,9.40
2023-04-12T18:34:18.283Z,12.13
2023-04-12T18:36:45.463Z,7.47
2023-04-12T18:39:12.110Z,9.40
2023-04-12T18:41:38.757Z,9.48
2023-04-12T18:44:05.299Z,7.07
2023-04-12T18:46:31.940Z,7.63
2023-04-12T18:48:58.689Z,6.50
2023-04-12T18:51:25.283Z,6.85
2023-04-12T18:53:51.952Z,10.05
2023-04-12T18:56:23.240Z,17.30
2023-04-12T18:58:55.945Z,17.15
2023-04-12T19:01:23.985Z,14.80
2023-04-12T19:03:52.232Z,12.05
2023-04-12T19:06:19.330Z,16.15
2023-04-12T19:08:46.165Z,12.60
2023-04-12T19:11:12.774Z,12.90
2023-04-12T19:13:39.423Z,15.70
2023-04-12T19:16:08.776Z,11.07
2023-04-12T19:18:35.566Z,10.05
2023-04-12T19:21:03.315Z,9.48
2023-04-12T19:23:31.207Z,12.63
2023-04-12T19:26:00.043Z,9.27
2023-04-12T19:28:27.578Z,10.88
2023-04-12T19:30:54.827Z,13.15
2023-04-12T19:33:21.384Z,15.07
2023-04-12T19:35:48.084Z,15.93
2023-04-12T19:38:15.706Z,16.13
2023-04-12T19:40:43.106Z,10.25
2023-04-12T19:43:09.823Z,11.70
2023-04-12T19:45:36.555Z,10.10
2023-04-12T19:48:03.336Z,10.43
2023-04-12T19:50:30.997Z,8.30
2023-04-12T19:52:57.741Z,7.38
2023-04-12T19:55:25.160Z,9.90
2023-04-12T19:57:52.107Z,9.55
2023-04-12T20:00:20.287Z,8.60
2023-04-12T20:02:51.763Z,4.33
2023-04-12T20:05:20.687Z,11.73
2023-04-12T20:07:47.244Z,10.80
2023-04-12T20:10:15.241Z,11.15
2023-04-12T20:12:42.053Z,9.13
2023-04-12T20:15:11.479Z,8.00
2023-04-12T20:17:42.563Z,12.93
2023-04-12T20:20:17.177Z,7.68
2023-04-12T20:22:51.742Z,7.43
2023-04-12T20:25:20.176Z,4.22
2023-04-12T20:27:52.015Z,5.97
2023-04-12T20:30:20.449Z,5.03
2023-04-12T20:32:49.057Z,6.05
2023-04-12T20:35:15.674Z,4.15
2023-04-12T20:37:43.203Z,4.72
2023-04-12T20:40:10.106Z,4.50
2023-04-12T20:42:37.012Z,4.88
2023-04-12T20:45:03.920Z,4.15
2023-04-12T20:47:30.502Z,4.35
2023-04-12T20:49:57.137Z,6.07
2023-04-12T20:52:23.705Z,5.33
2023-04-12T20:54:50.239Z,7.15
2023-04-12T20:57:19.970Z,6.55
2023-04-12T20:59:46.785Z,10.70
2023-04-12T21:02:13.475Z,12.93
2023-04-12T21:04:41.692Z,9.00
2023-04-12T21:07:09.081Z,6.07
2023-04-12T21:09:35.623Z,5.40
2023-04-12T21:12:06.095Z,6.22
2023-04-12T21:14:34.925Z,5.03
2023-04-12T21:17:07.203Z,11.73
2023-04-12T21:19:39.025Z,13.73
2023-04-12T21:22:07.010Z,19.83
2023-04-12T21:24:38.128Z,26.90
2023-04-12T21:27:08.843Z,30.30
2023-04-12T21:29:40.906Z,9.20
2023-04-12T21:32:08.593Z,7.60
2023-04-12T21:34:35.449Z,7.13
2023-04-12T21:37:02.723Z,4.60
2023-04-12T21:39:29.383Z,4.20
2023-04-12T21:41:59.036Z,4.73
2023-04-12T21:44:25.728Z,5.53
2023-04-12T21:46:52.440Z,5.40
2023-04-12T21:49:19.151Z,5.88
2023-04-12T21:51:49.220Z,5.78
2023-04-12T21:54:16.261Z,5.20
2023-04-12T21:56:42.846Z,6.70
2023-04-12T21:59:09.446Z,4.72
2023-04-12T22:01:36.115Z,6.55
2023-04-12T22:04:04.252Z,5.78
2023-04-12T22:06:31.063Z,6.73
2023-04-12T22:09:01.646Z,6.55
2023-04-12T22:11:29.849Z,5.20
2023-04-12T22:13:56.920Z,6.55
2023-04-12T22:16:23.640Z,8.90
2023-04-12T22:18:50.773Z,5.23
2023-04-12T22:21:17.606Z,5.47
2023-04-12T22:23:44.191Z,7.60
2023-04-12T22:26:11.967Z,12.70
2023-04-12T22:28:38.831Z,12.52
2023-04-12T22:31:06.328Z,10.50
2023-04-12T22:33:33.292Z,11.30
2023-04-12T22:36:02.039Z,10.30
2023-04-12T22:38:28.686Z,9.68
2023-04-12T22:41:01.917Z,8.88
2023-04-12T22:43:41.445Z,6.80
2023-04-12T22:46:16.140Z,5.45
2023-04-12T22:48:43.828Z,5.07
2023-04-12T22:51:10.765Z,4.03
2023-04-12T22:53:37.661Z,3.80
2023-04-12T22:56:04.489Z,5.97
2023-04-12T22:58:31.343Z,5.38
2023-04-12T23:00:58.838Z,4.68
2023-04-12T23:03:25.864Z,6.45
2023-04-12T23:05:52.462Z,6.47
2023-04-12T23:08:20.130Z,14.77
2023-04-12T23:10:46.754Z,7.50
2023-04-12T23:13:13.647Z,4.28
2023-04-12T23:15:43.078Z,4.90
2023-04-12T23:18:10.746Z,5.78
2023-04-12T23:20:38.241Z,6.60
2023-04-12T23:23:05.607Z,6.65
2023-04-12T23:25:40.790Z,6.35
2023-04-12T23:28:15.078Z,6.75
2023-04-12T23:30:44.273Z,6.72
2023-04-12T23:33:12.060Z,7.07
2023-04-12T23:35:39.230Z,7.10
2023-04-12T23:38:05.797Z,6.80
2023-04-12T23:40:32.876Z,5.97
2023-04-12T23:42:59.428Z,7.03
2023-04-12T23:45:27.165Z,7.07
2023-04-12T23:47:54.175Z,6.68
2023-04-12T23:50:20.806Z,5.88
2023-04-12T23:52:47.561Z,5.53
2023-04-12T23:55:15.231Z,5.05
2023-04-12T23:57:42.217Z,5.77
